createdAt,value
2017-03-02T06:37:32.585Z,993.81
2017-03-02T06:38:32.614Z,993.79
2017-03-02T06:39:32.641Z,993.85
2017-03-02T06:40:32.666Z,993.88
2017-03-02T06:41:32.696Z,993.96
2017-03-02T06:42:32.724Z,993.93
2017-03-02T06:43:32.749Z,993.94
2017-03-02T06:44:32.779Z,993.94
2017-03-02T06:45:32.808Z,993.97
2017-03-02T06:46:32.834Z,993.96
2017-03-02T06:47:32.867Z,994.03
2017-03-02T06:48:32.889Z,993.99
2017-03-02T06:49:32.915Z,994.05
2017-03-02T06:50:32.947Z,993.97
2017-03-02T06:51:32.956Z,994
2017-03-02T06:52:32.999Z,994.02
2017-03-02T06:53:33.026Z,994.05
2017-03-02T06:54:33.077Z,994.07
2017-03-02T06:55:33.085Z,994
2017-03-02T06:56:33.112Z,994.08
2017-03-02T06:57:33.142Z,994.05
2017-03-02T06:58:33.171Z,994.02
2017-03-02T06:59:33.197Z,994.02
2017-03-02T07:00:33.223Z,994.1
2017-03-02T07:01:33.259Z,994.11
2017-03-02T07:02:33.277Z,994.12
2017-03-02T07:03:33.307Z,994.15
2017-03-02T07:04:33.337Z,994.16
2017-03-02T07:05:33.361Z,994.16
2017-03-02T07:06:33.388Z,994.14
2017-03-02T07:07:33.417Z,994.15
2017-03-02T07:08:33.448Z,994.18
2017-03-02T07:09:33.479Z,994.14
2017-03-02T07:10:33.507Z,994.14
2017-03-02T07:11:33.534Z,994.18
2017-03-02T07:12:33.561Z,994.1
2017-03-02T07:13:33.585Z,994.16
2017-03-02T07:14:33.620Z,994.19
2017-03-02T07:15:33.646Z,994.04
2017-03-02T07:16:33.661Z,994.1
2017-03-02T07:17:33.700Z,994.17
2017-03-02T07:18:33.736Z,994.14
2017-03-02T07:19:33.762Z,994.15
2017-03-02T07:20:33.790Z,994.15
2017-03-02T07:21:33.817Z,994.23
2017-03-02T07:22:33.844Z,994.24
2017-03-02T07:23:33.870Z,994.27
2017-03-02T07:24:33.904Z,994.18
2017-03-02T07:25:33.934Z,994.19
2017-03-02T07:26:33.958Z,994.19
2017-03-02T07:27:33.964Z,994.18
2017-03-02T07:28:34.020Z,994.25
2017-03-02T07:29:34.044Z,994.23
2017-03-02T07:30:34.074Z,994.27
2017-03-02T07:31:34.099Z,994.25
2017-03-02T07:32:34.130Z,994.25
2017-03-02T07:33:34.153Z,994.24
2017-03-02T07:34:34.183Z,994.27
2017-03-02T07:35:34.214Z,994.22
2017-03-02T07:36:34.245Z,994.29
2017-03-02T07:37:34.269Z,994.21
2017-03-02T07:38:34.299Z,994.26
2017-03-02T07:39:34.325Z,994.24
2017-03-02T07:40:34.357Z,994.31
2017-03-02T07:41:34.362Z,994.24
2017-03-02T07:42:34.415Z,994.19
2017-03-02T07:43:34.441Z,994.26
2017-03-02T07:44:34.475Z,994.25
2017-03-02T07:45:34.497Z,994.3
2017-03-02T07:46:34.529Z,994.3
2017-03-02T07:47:34.555Z,994.34
2017-03-02T07:48:34.584Z,994.32
2017-03-02T07:49:34.614Z,994.39
2017-03-02T07:50:34.642Z,994.4
2017-03-02T07:51:34.655Z,994.54
2017-03-02T07:52:34.700Z,994.57
2017-03-02T07:53:34.730Z,994.56
2017-03-02T07:54:34.756Z,994.69
2017-03-02T07:55:34.782Z,994.64
2017-03-02T07:56:34.816Z,994.56
2017-03-02T07:57:34.842Z,994.69
2017-03-02T07:58:34.873Z,994.85
2017-03-02T07:59:34.896Z,994.63
2017-03-02T08:00:34.929Z,994.8
2017-03-02T08:01:34.959Z,994.77
2017-03-02T08:02:34.965Z,994.84
2017-03-02T08:03:35.013Z,994.83
2017-03-02T08:04:35.043Z,994.84
2017-03-02T08:05:35.070Z,994.9
2017-03-02T08:06:35.094Z,995.07
2017-03-02T08:07:35.126Z,995.05
2017-03-02T08:08:35.155Z,995.04
2017-03-02T08:09:35.180Z,995.1
2017-03-02T08:10:35.205Z,995.03
2017-03-02T08:11:35.234Z,995.08
2017-03-02T08:12:35.267Z,995.1
2017-03-02T08:13:35.293Z,994.85
2017-03-02T08:14:35.322Z,995.13
2017-03-02T08:15:35.347Z,995.09
2017-03-02T08:16:35.376Z,995.25
2017-03-02T08:17:35.401Z,995.21
2017-03-02T08:18:35.431Z,995.1
2017-03-02T08:19:35.455Z,995.39
2017-03-02T08:20:35.480Z,995.36
2017-03-02T08:21:35.512Z,995.43
2017-03-02T08:22:35.539Z,995.58
2017-03-02T08:23:35.572Z,995.62
2017-03-02T08:24:35.575Z,995.44
2017-03-02T08:25:35.618Z,995.38
2017-03-02T08:26:35.650Z,995.39
2017-03-02T08:27:35.675Z,995.34
2017-03-02T08:28:35.704Z,995.44
2017-03-02T08:29:35.737Z,995.37
2017-03-02T08:30:35.760Z,995.48
2017-03-02T08:31:35.783Z,995.5
2017-03-02T08:32:35.809Z,995.49
2017-03-02T08:33:35.840Z,995.47
2017-03-02T08:34:35.867Z,995.47
2017-03-02T08:35:35.877Z,995.5
2017-03-02T08:36:35.926Z,995.52
2017-03-02T08:37:35.947Z,995.48
2017-03-02T08:38:35.972Z,995.54
2017-03-02T08:39:36.000Z,995.57
2017-03-02T08:40:36.024Z,995.55
2017-03-02T08:41:36.052Z,995.55
2017-03-02T08:42:36.080Z,995.61
2017-03-02T08:43:36.106Z,995.58
2017-03-02T08:44:36.134Z,995.61
2017-03-02T08:45:36.188Z,995.6
2017-03-02T08:46:36.185Z,995.58
2017-03-02T08:47:36.215Z,995.65
2017-03-02T08:48:36.242Z,995.69
2017-03-02T08:49:36.254Z,995.69
2017-03-02T08:50:36.300Z,995.66
2017-03-02T08:51:36.326Z,995.67
2017-03-02T08:52:36.353Z,995.69
2017-03-02T08:53:36.378Z,995.69
2017-03-02T08:54:36.407Z,995.66
2017-03-02T08:55:36.430Z,995.66
2017-03-02T08:56:36.462Z,995.69
2017-03-02T08:57:36.463Z,995.71
2017-03-02T08:58:36.514Z,995.72
2017-03-02T08:59:36.541Z,995.75
2017-03-02T09:00:36.573Z,995.88
2017-03-02T09:01:36.597Z,995.75
2017-03-02T09:02:36.626Z,995.75
2017-03-02T09:03:36.655Z,995.8
2017-03-02T09:04:36.683Z,995.77
2017-03-02T09:05:36.711Z,995.76
2017-03-02T09:06:36.737Z,995.74
2017-03-02T09:07:36.767Z,995.7
2017-03-02T09:08:36.773Z,995.74
2017-03-02T09:09:36.817Z,995.72
2017-03-02T09:10:36.854Z,995.73
2017-03-02T09:11:36.880Z,995.68
2017-03-02T09:12:36.902Z,995.72
2017-03-02T09:13:36.933Z,995.71
2017-03-02T09:14:36.960Z,995.75
2017-03-02T09:15:36.989Z,995.72
2017-03-02T09:16:37.017Z,995.75
2017-03-02T09:17:37.045Z,995.79
2017-03-02T09:18:37.073Z,995.79
2017-03-02T09:19:37.101Z,995.76
2017-03-02T09:20:37.128Z,995.76
2017-03-02T09:21:37.164Z,995.7
2017-03-02T09:22:37.173Z,995.77
2017-03-02T09:23:37.214Z,995.86
2017-03-02T09:24:37.244Z,995.8
2017-03-02T09:25:37.272Z,995.81
2017-03-02T09:26:37.299Z,995.89
2017-03-02T09:27:37.328Z,995.84
2017-03-02T09:28:37.360Z,995.77
2017-03-02T09:29:37.387Z,995.9
2017-03-02T09:30:37.416Z,995.85
2017-03-02T09:31:37.425Z,995.94
2017-03-02T09:32:37.477Z,995.88
2017-03-02T09:33:37.501Z,995.92
2017-03-02T09:34:37.521Z,996
2017-03-02T09:35:37.560Z,995.88
2017-03-02T09:36:37.586Z,995.98
2017-03-02T09:37:37.616Z,996.08
2017-03-02T09:38:37.643Z,996.03
2017-03-02T09:39:37.676Z,996.13
2017-03-02T09:40:37.699Z,996.23
2017-03-02T09:41:37.723Z,996.19
2017-03-02T09:42:37.760Z,996.2
2017-03-02T09:43:37.779Z,996.4
2017-03-02T09:44:37.815Z,996.2
2017-03-02T09:45:37.838Z,996.27
2017-03-02T09:46:37.874Z,996.29
2017-03-02T09:47:37.888Z,996.21
2017-03-02T09:48:37.924Z,996.34
2017-03-02T09:49:37.956Z,996.41
2017-03-02T09:50:37.979Z,996.35
2017-03-02T09:51:38.010Z,996.41
2017-03-02T09:52:38.052Z,996.45
2017-03-02T09:53:38.068Z,996.41
2017-03-02T09:54:38.102Z,996.42
2017-03-02T09:55:38.125Z,996.35
2017-03-02T09:56:38.150Z,996.46
2017-03-02T09:57:38.161Z,996.52
2017-03-02T09:58:38.212Z,996.72
2017-03-02T09:59:38.242Z,996.57
2017-03-02T10:00:38.269Z,996.54
2017-03-02T10:01:38.278Z,996.67
2017-03-02T10:02:38.323Z,996.61
2017-03-02T10:03:38.353Z,996.76
2017-03-02T10:04:38.368Z,996.74
2017-03-02T10:05:38.395Z,996.82
2017-03-02T10:06:38.441Z,996.81
2017-03-02T10:07:38.468Z,996.85
2017-03-02T10:08:38.500Z,996.81
2017-03-02T10:09:38.525Z,996.85
2017-03-02T10:10:38.554Z,996.9
2017-03-02T10:11:38.699Z,996.88
2017-03-02T10:12:38.597Z,997.03
2017-03-02T10:13:38.643Z,996.89
2017-03-02T10:14:38.668Z,996.99
2017-03-02T10:15:38.700Z,996.94
2017-03-02T10:16:38.731Z,996.99
2017-03-02T10:17:38.761Z,997.07
2017-03-02T10:18:38.771Z,997.12
2017-03-02T10:19:38.816Z,997.26
2017-03-02T10:20:38.863Z,996.88
2017-03-02T10:21:38.871Z,997.07
2017-03-02T10:22:38.906Z,997.05
2017-03-02T10:23:38.930Z,997
2017-03-02T10:24:38.967Z,997.28
2017-03-02T10:25:38.993Z,997.14
2017-03-02T10:26:39.007Z,997.16
2017-03-02T10:27:39.047Z,997.14
2017-03-02T10:28:39.079Z,997.21
2017-03-02T10:29:39.108Z,997.28
2017-03-02T10:30:39.133Z,997.31
2017-03-02T10:31:39.168Z,997.37
2017-03-02T10:32:39.195Z,997.33
2017-03-02T10:33:39.205Z,997.35
2017-03-02T10:34:39.255Z,997.34
2017-03-02T10:35:39.280Z,997.59
2017-03-02T10:36:39.309Z,997.41
2017-03-02T10:37:39.341Z,997.37
2017-03-02T10:38:39.373Z,997.39
2017-03-02T10:39:39.403Z,997.52
2017-03-02T10:40:39.432Z,997.67
2017-03-02T10:41:39.461Z,997.81
2017-03-02T10:42:39.494Z,997.63
2017-03-02T10:43:39.497Z,997.55
2017-03-02T10:44:39.552Z,997.47
2017-03-02T10:45:39.576Z,997.5
2017-03-02T10:46:39.609Z,997.68
2017-03-02T10:47:39.840Z,997.73
2017-03-02T10:48:39.668Z,997.6
2017-03-02T10:49:39.699Z,997.72
2017-03-02T10:50:39.730Z,997.76
2017-03-02T10:51:39.756Z,997.76
2017-03-02T10:52:39.787Z,997.89
2017-03-02T10:53:39.794Z,997.84
2017-03-02T10:54:39.845Z,997.92
2017-03-02T10:55:39.874Z,997.83
2017-03-02T10:56:39.904Z,997.87
2017-03-02T10:57:39.934Z,997.91
2017-03-02T10:58:39.962Z,998.04
2017-03-02T10:59:39.993Z,997.99
2017-03-02T11:00:40.006Z,998.04
2017-03-02T11:01:40.052Z,997.97
2017-03-02T11:02:40.434Z,998.06
2017-03-02T11:03:40.112Z,998.22
2017-03-02T11:04:40.141Z,998.13
2017-03-02T11:05:40.149Z,998.18
2017-03-02T11:06:40.200Z,998.07
2017-03-02T11:07:40.232Z,998.06
2017-03-02T11:08:40.259Z,998.13
2017-03-02T11:09:40.287Z,998.09
2017-03-02T11:10:40.315Z,998.1
2017-03-02T11:11:40.348Z,998.12
2017-03-02T11:12:40.370Z,998.23
2017-03-02T11:13:40.406Z,998.29
2017-03-02T11:14:40.432Z,998.29
2017-03-02T11:15:40.457Z,998.35
2017-03-02T11:16:40.490Z,998.28
2017-03-02T11:17:40.514Z,998.36
2017-03-02T11:18:40.546Z,998.27
2017-03-02T11:19:40.574Z,998.29
2017-03-02T11:20:40.604Z,998.34
2017-03-02T11:21:40.642Z,998.29
2017-03-02T11:22:40.660Z,998.33
2017-03-02T11:23:40.699Z,998.45
2017-03-02T11:24:40.696Z,998.44
2017-03-02T11:25:40.724Z,998.37
2017-03-02T11:26:40.757Z,998.49
2017-03-02T11:27:40.801Z,998.45
2017-03-02T11:28:40.810Z,998.47
2017-03-02T11:29:40.855Z,998.47
2017-03-02T11:30:40.883Z,998.39
2017-03-02T11:31:40.910Z,998.42
2017-03-02T11:32:40.938Z,998.41
2017-03-02T11:33:40.958Z,998.54
2017-03-02T11:34:40.995Z,998.5
2017-03-02T11:35:41.024Z,998.64
2017-03-02T11:36:41.054Z,998.59
2017-03-02T11:37:41.080Z,998.63
2017-03-02T11:38:41.109Z,998.67
2017-03-02T11:39:41.136Z,998.72
2017-03-02T11:40:41.164Z,998.64
2017-03-02T11:41:41.195Z,998.65
2017-03-02T11:42:41.234Z,998.67
2017-03-02T11:43:41.252Z,998.56
2017-03-02T11:44:41.277Z,998.61
2017-03-02T11:45:41.315Z,998.71
2017-03-02T11:46:41.323Z,998.84
2017-03-02T11:47:41.367Z,998.7
2017-03-02T11:48:41.390Z,998.71
2017-03-02T11:49:41.417Z,998.67
2017-03-02T11:50:41.448Z,998.74
2017-03-02T11:51:41.476Z,998.56
2017-03-02T11:52:41.507Z,998.67
2017-03-02T11:53:41.534Z,998.78
2017-03-02T11:54:41.561Z,998.67
2017-03-02T11:55:41.592Z,998.62
2017-03-02T11:56:41.621Z,998.71
2017-03-02T11:57:41.649Z,998.61
2017-03-02T11:58:41.829Z,998.68
2017-03-02T11:59:41.707Z,998.71
2017-03-02T12:00:41.736Z,998.68
2017-03-02T12:01:41.760Z,998.79
2017-03-02T12:02:41.790Z,998.66
2017-03-02T12:03:41.823Z,998.8
2017-03-02T12:04:41.831Z,998.79
2017-03-02T12:05:41.881Z,998.92
2017-03-02T12:06:41.906Z,998.9
2017-03-02T12:07:41.933Z,998.89
2017-03-02T12:08:41.962Z,998.99
2017-03-02T12:09:41.992Z,998.89
2017-03-02T12:10:42.021Z,998.91
2017-03-02T12:11:42.051Z,998.97
2017-03-02T12:12:42.063Z,998.93
2017-03-02T12:13:42.108Z,998.97
2017-03-02T12:14:42.135Z,998.93
2017-03-02T12:15:42.162Z,998.94
2017-03-02T12:16:42.201Z,999
2017-03-02T12:17:42.229Z,999.08
2017-03-02T12:18:42.250Z,999.05
2017-03-02T12:19:42.280Z,999.14
2017-03-02T12:20:42.306Z,999.16
2017-03-02T12:21:42.316Z,999.07
2017-03-02T12:22:42.365Z,999.08
2017-03-02T12:23:42.414Z,999.08
2017-03-02T12:24:42.426Z,999.17
2017-03-02T12:25:42.452Z,999.09
2017-03-02T12:26:42.480Z,999.16
2017-03-02T12:27:42.511Z,999.28
2017-03-02T12:28:42.581Z,999.05
2017-03-02T12:29:42.564Z,999.27
2017-03-02T12:30:42.596Z,999.29
2017-03-02T12:31:42.627Z,999.23
2017-03-02T12:32:42.656Z,999.33
2017-03-02T12:33:42.677Z,999.22
2017-03-02T12:34:42.710Z,999.23
2017-03-02T12:35:42.736Z,999.48
2017-03-02T12:36:42.765Z,999.31
2017-03-02T12:37:42.794Z,999.48
2017-03-02T12:38:42.828Z,999.55
2017-03-02T12:39:42.855Z,999.44
2017-03-02T12:40:42.878Z,999.49
2017-03-02T12:41:42.890Z,999.58
2017-03-02T12:42:42.936Z,999.49
2017-03-02T12:43:42.963Z,999.5
2017-03-02T12:44:42.990Z,999.57
2017-03-02T12:45:43.021Z,999.55
2017-03-02T12:46:43.030Z,999.58
2017-03-02T12:47:43.077Z,999.67
2017-03-02T12:48:43.108Z,999.47
2017-03-02T12:49:43.435Z,999.62
2017-03-02T12:50:43.141Z,999.58
2017-03-02T12:51:43.189Z,999.61
2017-03-02T12:52:43.219Z,999.66
2017-03-02T12:53:43.241Z,999.66
2017-03-02T12:54:43.273Z,999.67
2017-03-02T12:55:43.300Z,999.66
2017-03-02T12:56:43.332Z,999.73
2017-03-02T12:57:43.358Z,999.67
2017-03-02T12:58:43.385Z,999.77
2017-03-02T12:59:43.411Z,999.69
2017-03-02T13:00:43.437Z,999.81
2017-03-02T13:01:43.471Z,999.79
2017-03-02T13:02:43.499Z,999.91
2017-03-02T13:03:43.523Z,999.87
2017-03-02T13:04:43.555Z,999.98
2017-03-02T13:05:43.587Z,999.9
2017-03-02T13:06:43.610Z,999.88
2017-03-02T13:07:43.621Z,999.93
2017-03-02T13:08:43.668Z,1000.03
2017-03-02T13:09:43.694Z,1000
2017-03-02T13:10:43.723Z,999.91
2017-03-02T13:11:43.732Z,1000.09
2017-03-02T13:12:43.776Z,999.99
2017-03-02T13:13:43.802Z,1000.07
2017-03-02T13:14:43.839Z,1000.07
2017-03-02T13:15:43.844Z,1000.08
2017-03-02T13:16:43.898Z,1000.19
2017-03-02T13:17:43.926Z,1000.12
2017-03-02T13:18:43.925Z,1000.13
2017-03-02T13:19:43.967Z,1000.31
2017-03-02T13:20:44.001Z,1000.3
2017-03-02T13:21:44.037Z,1000.28
2017-03-02T13:22:44.052Z,1000.28
2017-03-02T13:23:44.080Z,1000.18
2017-03-02T13:24:44.109Z,1000.28
2017-03-02T13:25:44.135Z,1000.42
2017-03-02T13:26:44.165Z,1000.33
2017-03-02T13:27:44.191Z,1000.35
2017-03-02T13:28:44.226Z,1000.41
2017-03-02T13:29:44.227Z,1000.45
2017-03-02T13:30:44.272Z,1000.44
2017-03-02T13:31:44.302Z,1000.44
2017-03-02T13:32:44.331Z,1000.41
2017-03-02T13:33:44.360Z,1000.47
2017-03-02T13:34:44.397Z,1000.51
2017-03-02T13:35:44.566Z,1000.59
2017-03-02T13:36:44.437Z,1000.67
2017-03-02T13:37:44.468Z,1000.67
2017-03-02T13:38:44.496Z,1000.69
2017-03-02T13:39:44.526Z,1000.6
2017-03-02T13:40:44.550Z,1000.75
2017-03-02T13:41:44.581Z,1000.68
2017-03-02T13:42:44.606Z,1000.8
2017-03-02T13:43:44.631Z,1000.87
2017-03-02T13:44:44.663Z,1000.87
2017-03-02T13:45:44.689Z,1000.87
2017-03-02T13:46:44.717Z,1000.84
2017-03-02T13:47:44.730Z,1000.99
2017-03-02T13:48:44.774Z,1000.94
2017-03-02T13:49:44.801Z,1000.96
2017-03-02T13:50:44.830Z,1001.06
2017-03-02T13:51:44.854Z,1001.09
2017-03-02T13:52:44.879Z,1001.09
2017-03-02T13:53:44.908Z,1001.19
2017-03-02T13:54:44.938Z,1001.26
2017-03-02T13:55:44.963Z,1001.28
2017-03-02T13:56:44.993Z,1001.34
2017-03-02T13:57:45.021Z,1001.23
2017-03-02T13:58:45.028Z,1001.38
2017-03-02T13:59:45.072Z,1001.37
2017-03-02T14:00:45.099Z,1001.45
2017-03-02T14:01:45.131Z,1001.46
2017-03-02T14:02:45.152Z,1001.46
2017-03-02T14:03:45.185Z,1001.53
2017-03-02T14:04:45.212Z,1001.46
2017-03-02T14:05:45.228Z,1001.57
2017-03-02T14:06:45.269Z,1001.64
2017-03-02T14:07:45.291Z,1001.59
2017-03-02T14:08:45.322Z,1001.54
2017-03-02T14:09:45.350Z,1001.66
2017-03-02T14:10:45.377Z,1001.66
2017-03-02T14:11:45.402Z,1001.75
2017-03-02T14:12:45.431Z,1001.73
2017-03-02T14:13:45.459Z,1001.72
2017-03-02T14:14:45.487Z,1001.76
2017-03-02T14:15:45.509Z,1001.81
2017-03-02T14:16:45.537Z,1001.86
2017-03-02T14:17:45.572Z,1001.89
2017-03-02T14:18:45.597Z,1001.92
2017-03-02T14:19:45.620Z,1001.9
2017-03-02T14:20:45.651Z,1001.99
2017-03-02T14:21:45.829Z,1002.04
2017-03-02T14:22:45.702Z,1002.03
2017-03-02T14:23:45.734Z,1002.07
2017-03-02T14:24:45.759Z,1002.07
2017-03-02T14:25:45.786Z,1002.1
2017-03-02T14:26:45.809Z,1002.12
2017-03-02T14:27:45.833Z,1002.17
2017-03-02T14:28:45.867Z,1002.19
2017-03-02T14:29:45.879Z,1002.18
2017-03-02T14:30:45.923Z,1002.25
2017-03-02T14:31:45.953Z,1002.25
2017-03-02T14:32:45.974Z,1002.32
2017-03-02T14:33:45.998Z,1002.37
2017-03-02T14:34:46.030Z,1002.32
2017-03-02T14:35:46.060Z,1002.36
2017-03-02T14:36:46.083Z,1002.39
2017-03-02T14:37:46.113Z,1002.42
2017-03-02T14:38:46.139Z,1002.45
2017-03-02T14:39:46.164Z,1002.46
2017-03-02T14:40:46.194Z,1002.48
2017-03-02T14:41:46.219Z,1002.45
2017-03-02T14:42:46.223Z,1002.48
2017-03-02T14:43:46.274Z,1002.51
2017-03-02T14:44:46.306Z,1002.56
2017-03-02T14:45:46.327Z,1002.52
2017-03-02T14:46:46.337Z,1002.64
2017-03-02T14:47:46.378Z,1002.64
2017-03-02T14:48:46.409Z,1002.69
2017-03-02T14:49:46.439Z,1002.68
2017-03-02T14:50:46.463Z,1002.73
2017-03-02T14:51:46.494Z,1002.73
2017-03-02T14:52:46.518Z,1002.72
2017-03-02T14:53:46.523Z,1002.76
2017-03-02T14:54:46.573Z,1002.74
2017-03-02T14:55:46.600Z,1002.78
2017-03-02T14:56:46.635Z,1002.81
2017-03-02T14:57:46.647Z,1002.8
2017-03-02T14:58:46.684Z,1002.83
2017-03-02T14:59:46.708Z,1002.85
2017-03-02T15:00:46.742Z,1002.91
2017-03-02T15:01:46.761Z,1002.94
2017-03-02T15:02:46.773Z,1002.91
2017-03-02T15:03:46.822Z,1002.93
2017-03-02T15:04:46.845Z,1002.95
2017-03-02T15:05:46.875Z,1002.94
2017-03-02T15:06:46.897Z,1002.97
2017-03-02T15:07:46.927Z,1003.02
2017-03-02T15:08:46.959Z,1003.01
2017-03-02T15:09:46.984Z,1003.07
2017-03-02T15:10:46.996Z,1003.05
2017-03-02T15:11:47.041Z,1003.03
2017-03-02T15:12:47.166Z,1003.08
2017-03-02T15:13:47.097Z,1003.13
2017-03-02T15:14:47.126Z,1003.14
2017-03-02T15:15:47.129Z,1003.09
2017-03-02T15:16:47.175Z,1003.12
2017-03-02T15:17:47.208Z,1003.12
2017-03-02T15:18:47.234Z,1003.15
2017-03-02T15:19:47.263Z,1003.18
2017-03-02T15:20:47.293Z,1003.19
2017-03-02T15:21:47.318Z,1003.25
2017-03-02T15:22:47.343Z,1003.26
2017-03-02T15:23:47.374Z,1003.28
2017-03-02T15:24:47.397Z,1003.26
2017-03-02T15:25:47.426Z,1003.3
2017-03-02T15:26:47.434Z,1003.4
2017-03-02T15:27:47.494Z,1003.36
2017-03-02T15:28:47.511Z,1003.41
2017-03-02T15:29:47.522Z,1003.43
2017-03-02T15:30:47.571Z,1003.46
2017-03-02T15:31:47.593Z,1003.43
2017-03-02T15:32:47.621Z,1003.44
2017-03-02T15:33:47.625Z,1003.45
2017-03-02T15:34:47.677Z,1003.48
2017-03-02T15:35:47.688Z,1003.52
2017-03-02T15:36:47.739Z,1003.51
2017-03-02T15:37:47.760Z,1003.5
2017-03-02T15:38:47.789Z,1003.53
2017-03-02T15:39:47.818Z,1003.56
2017-03-02T15:40:47.845Z,1003.6
2017-03-02T15:41:47.869Z,1003.6
2017-03-02T15:42:47.901Z,1003.64
2017-03-02T15:43:47.930Z,1003.61
2017-03-02T15:44:47.938Z,1003.68
2017-03-02T15:45:47.979Z,1003.73
2017-03-02T15:46:48.008Z,1003.68
2017-03-02T15:47:48.038Z,1003.73
2017-03-02T15:48:48.064Z,1003.71
2017-03-02T15:49:48.097Z,1003.78
2017-03-02T15:50:48.118Z,1003.77
2017-03-02T15:51:48.145Z,1003.82
2017-03-02T15:52:48.172Z,1003.92
2017-03-02T15:53:48.203Z,1003.85
2017-03-02T15:54:48.234Z,1003.95
2017-03-02T15:55:48.257Z,1003.97
2017-03-02T15:56:48.263Z,1003.98
2017-03-02T15:57:48.312Z,1003.98
2017-03-02T15:58:48.341Z,1003.96
2017-03-02T15:59:48.370Z,1004.04
2017-03-02T16:00:48.400Z,1004.11
2017-03-02T16:01:48.422Z,1004.15
2017-03-02T16:02:48.447Z,1004.16
2017-03-02T16:03:48.633Z,1004.12
2017-03-02T16:04:48.504Z,1004.18
2017-03-02T16:05:48.532Z,1004.16
2017-03-02T16:06:48.559Z,1004.27
2017-03-02T16:07:48.589Z,1004.24
2017-03-02T16:08:48.613Z,1004.27
2017-03-02T16:09:48.640Z,1004.31
2017-03-02T16:10:48.666Z,1004.33
